sensor_id;sensor_type;location;lat;lon;timestamp;P1;durP1;ratioP1;P2;durP2;ratioP2
72205;SDS011;60111;48.286;7.812;2023-04-01T00:01:03;0.93;;;0.50;;
72205;SDS011;60111;48.286;7.812;2023-04-01T00:03:37;1.30;;;0.50;;
72205;SDS011;60111;48.286;7.812;2023-04-01T00:06:11;1.13;;;0.53;;
72205;SDS011;60111;48.286;7.812;2023-04-01T00:08:46;0.88;;;0.50;;
72205;SDS011;60111;48.286;7.812;2023-04-01T00:11:19;1.02;;;0.47;;
72205;SDS011;60111;48.286;7.812;2023-04-01T00:13:52;1.07;;;0.40;;
72205;SDS011;60111;48.286;7.812;2023-04-01T00:16:25;0.50;;;0.40;;
72205;SDS011;60111;48.286;7.812;2023-04-01T00:18:58;4.12;;;0.40;;
72205;SDS011;60111;48.286;7.812;2023-04-01T00:21:31;0.42;;;0.40;;
72205;SDS011;60111;48.286;7.812;2023-04-01T00:24:04;0.53;;;0.20;;
72205;SDS011;60111;48.286;7.812;2023-04-01T00:26:37;0.60;;;0.60;;
72205;SDS011;60111;48.286;7.812;2023-04-01T00:29:10;0.30;;;0.30;;
72205;SDS011;60111;48.286;7.812;2023-04-01T00:31:43;0.85;;;0.35;;
72205;SDS011;60111;48.286;7.812;2023-04-01T00:34:15;0.42;;;0.37;;
72205;SDS011;60111;48.286;7.812;2023-04-01T00:36:48;0.40;;;0.28;;
72205;SDS011;60111;48.286;7.812;2023-04-01T00:39:21;0.65;;;0.40;;
72205;SDS011;60111;48.286;7.812;2023-04-01T00:41:53;2.80;;;0.40;;
72205;SDS011;60111;48.286;7.812;2023-04-01T00:44:28;2.43;;;0.50;;
72205;SDS011;60111;48.286;7.812;2023-04-01T00:47:03;1.85;;;0.68;;
72205;SDS011;60111;48.286;7.812;2023-04-01T00:49:37;1.40;;;0.33;;
72205;SDS011;60111;48.286;7.812;2023-04-01T00:52:15;0.47;;;0.40;;
72205;SDS011;60111;48.286;7.812;2023-04-01T00:54:53;0.47;;;0.47;;
72205;SDS011;60111;48.286;7.812;2023-04-01T00:57:30;2.02;;;0.60;;
72205;SDS011;60111;48.286;7.812;2023-04-01T01:00:06;1.27;;;0.50;;
72205;SDS011;60111;48.286;7.812;2023-04-01T01:02:41;1.30;;;0.60;;
72205;SDS011;60111;48.286;7.812;2023-04-01T01:05:15;1.95;;;0.75;;
72205;SDS011;60111;48.286;7.812;2023-04-01T01:07:54;1.70;;;0.68;;
72205;SDS011;60111;48.286;7.812;2023-04-01T01:10:34;0.57;;;0.57;;
72205;SDS011;60111;48.286;7.812;2023-04-01T01:13:34;2.83;;;0.62;;
72205;SDS011;60111;48.286;7.812;2023-04-01T01:16:01;3.10;;;0.80;;
72205;SDS011;60111;48.286;7.812;2023-04-01T01:19:02;3.17;;;0.70;;
72205;SDS011;60111;48.286;7.812;2023-04-01T01:21:55;4.83;;;1.00;;
72205;SDS011;60111;48.286;7.812;2023-04-01T01:27:30;2.70;;;0.90;;
72205;SDS011;60111;48.286;7.812;2023-04-01T01:33:03;3.93;;;0.87;;
72205;SDS011;60111;48.286;7.812;2023-04-01T01:35:49;1.10;;;0.82;;
72205;SDS011;60111;48.286;7.812;2023-04-01T01:38:24;1.45;;;0.70;;
72205;SDS011;60111;48.286;7.812;2023-04-01T01:40:59;3.17;;;1.00;;
72205;SDS011;60111;48.286;7.812;2023-04-01T01:43:37;5.58;;;1.02;;
72205;SDS011;60111;48.286;7.812;2023-04-01T01:46:16;4.62;;;1.02;;
72205;SDS011;60111;48.286;7.812;2023-04-01T01:48:50;3.77;;;1.00;;
72205;SDS011;60111;48.286;7.812;2023-04-01T01:53:57;6.22;;;1.07;;
72205;SDS011;60111;48.286;7.812;2023-04-01T01:56:30;4.70;;;1.22;;
72205;SDS011;60111;48.286;7.812;2023-04-01T01:59:05;3.13;;;0.90;;
72205;SDS011;60111;48.286;7.812;2023-04-01T02:01:41;3.40;;;1.00;;
72205;SDS011;60111;48.286;7.812;2023-04-01T02:04:15;3.08;;;1.02;;
72205;SDS011;60111;48.286;7.812;2023-04-01T02:06:59;4.87;;;1.37;;
72205;SDS011;60111;48.286;7.812;2023-04-01T02:09:32;8.48;;;1.77;;
72205;SDS011;60111;48.286;7.812;2023-04-01T02:12:08;5.65;;;1.55;;
72205;SDS011;60111;48.286;7.812;2023-04-01T02:17:21;5.17;;;1.50;;
72205;SDS011;60111;48.286;7.812;2023-04-01T02:19:57;5.03;;;1.37;;
72205;SDS011;60111;48.286;7.812;2023-04-01T02:22:37;4.50;;;1.32;;
72205;SDS011;60111;48.286;7.812;2023-04-01T02:25:13;8.20;;;1.85;;
72205;SDS011;60111;48.286;7.812;2023-04-01T02:27:48;8.63;;;1.67;;
72205;SDS011;60111;48.286;7.812;2023-04-01T02:30:21;11.97;;;2.07;;
72205;SDS011;60111;48.286;7.812;2023-04-01T02:32:55;12.93;;;1.90;;
72205;SDS011;60111;48.286;7.812;2023-04-01T02:35:29;8.58;;;2.00;;
72205;SDS011;60111;48.286;7.812;2023-04-01T02:38:04;10.30;;;2.27;;
72205;SDS011;60111;48.286;7.812;2023-04-01T02:40:41;13.10;;;2.10;;
72205;SDS011;60111;48.286;7.812;2023-04-01T02:43:15;13.68;;;2.65;;
72205;SDS011;60111;48.286;7.812;2023-04-01T02:45:50;9.20;;;2.10;;
72205;SDS011;60111;48.286;7.812;2023-04-01T02:48:23;13.43;;;2.75;;
72205;SDS011;60111;48.286;7.812;2023-04-01T02:50:55;10.90;;;2.12;;
72205;SDS011;60111;48.286;7.812;2023-04-01T02:53:28;6.97;;;1.47;;
72205;SDS011;60111;48.286;7.812;2023-04-01T02:56:01;6.53;;;1.42;;
72205;SDS011;60111;48.286;7.812;2023-04-01T02:58:33;6.92;;;1.50;;
72205;SDS011;60111;48.286;7.812;2023-04-01T03:01:06;8.08;;;1.72;;
72205;SDS011;60111;48.286;7.812;2023-04-01T03:03:39;10.13;;;1.72;;
72205;SDS011;60111;48.286;7.812;2023-04-01T03:06:12;9.38;;;1.98;;
72205;SDS011;60111;48.286;7.812;2023-04-01T03:08:47;7.50;;;1.70;;
72205;SDS011;60111;48.286;7.812;2023-04-01T03:11:20;5.53;;;1.30;;
72205;SDS011;60111;48.286;7.812;2023-04-01T03:13:52;7.87;;;1.60;;
72205;SDS011;60111;48.286;7.812;2023-04-01T03:16:25;7.17;;;1.47;;
72205;SDS011;60111;48.286;7.812;2023-04-01T03:18:57;3.95;;;0.85;;
72205;SDS011;60111;48.286;7.812;2023-04-01T03:21:32;5.97;;;1.43;;
72205;SDS011;60111;48.286;7.812;2023-04-01T03:24:04;5.25;;;1.10;;
72205;SDS011;60111;48.286;7.812;2023-04-01T03:26:38;3.73;;;0.90;;
72205;SDS011;60111;48.286;7.812;2023-04-01T03:29:11;4.53;;;0.85;;
72205;SDS011;60111;48.286;7.812;2023-04-01T03:31:45;1.83;;;0.70;;
72205;SDS011;60111;48.286;7.812;2023-04-01T03:34:17;1.07;;;0.53;;
72205;SDS011;60111;48.286;7.812;2023-04-01T03:36:50;2.03;;;0.60;;
72205;SDS011;60111;48.286;7.812;2023-04-01T03:39:23;1.20;;;0.98;;
72205;SDS011;60111;48.286;7.812;2023-04-01T03:41:56;0.57;;;0.55;;
72205;SDS011;60111;48.286;7.812;2023-04-01T03:44:32;4.50;;;0.50;;
72205;SDS011;60111;48.286;7.812;2023-04-01T03:47:05;1.27;;;0.40;;
72205;SDS011;60111;48.286;7.812;2023-04-01T03:49:39;1.82;;;0.30;;
72205;SDS011;60111;48.286;7.812;2023-04-01T03:52:12;1.70;;;0.50;;
72205;SDS011;60111;48.286;7.812;2023-04-01T03:54:45;1.22;;;0.37;;
72205;SDS011;60111;48.286;7.812;2023-04-01T03:57:17;1.75;;;0.40;;
72205;SDS011;60111;48.286;7.812;2023-04-01T03:59:50;1.75;;;0.60;;
72205;SDS011;60111;48.286;7.812;2023-04-01T04:02:25;3.95;;;0.90;;
72205;SDS011;60111;48.286;7.812;2023-04-01T04:05:01;6.37;;;1.22;;
72205;SDS011;60111;48.286;7.812;2023-04-01T04:07:34;4.03;;;1.10;;
72205;SDS011;60111;48.286;7.812;2023-04-01T04:10:07;8.50;;;1.40;;
72205;SDS011;60111;48.286;7.812;2023-04-01T04:12:40;8.00;;;1.53;;
72205;SDS011;60111;48.286;7.812;2023-04-01T04:15:12;9.98;;;1.82;;
72205;SDS011;60111;48.286;7.812;2023-04-01T04:17:45;7.97;;;1.95;;
72205;SDS011;60111;48.286;7.812;2023-04-01T04:20:19;17.27;;;4.35;;
72205;SDS011;60111;48.286;7.812;2023-04-01T04:22:51;10.78;;;2.08;;
72205;SDS011;60111;48.286;7.812;2023-04-01T04:25:24;9.28;;;1.70;;
72205;SDS011;60111;48.286;7.812;2023-04-01T04:27:56;7.67;;;1.55;;
72205;SDS011;60111;48.286;7.812;2023-04-01T04:30:29;6.53;;;1.42;;
72205;SDS011;60111;48.286;7.812;2023-04-01T04:33:01;3.87;;;1.10;;
72205;SDS011;60111;48.286;7.812;2023-04-01T04:35:34;4.40;;;1.20;;
72205;SDS011;60111;48.286;7.812;2023-04-01T04:38:06;1.52;;;0.80;;
72205;SDS011;60111;48.286;7.812;2023-04-01T04:40:40;5.03;;;1.07;;
72205;SDS011;60111;48.286;7.812;2023-04-01T04:43:13;3.20;;;1.00;;
72205;SDS011;60111;48.286;7.812;2023-04-01T04:45:47;3.43;;;1.10;;
72205;SDS011;60111;48.286;7.812;2023-04-01T04:48:20;3.62;;;0.72;;
72205;SDS011;60111;48.286;7.812;2023-04-01T04:50:53;2.90;;;0.60;;
72205;SDS011;60111;48.286;7.812;2023-04-01T04:53:25;3.10;;;1.02;;
72205;SDS011;60111;48.286;7.812;2023-04-01T04:55:58;5.70;;;1.12;;
72205;SDS011;60111;48.286;7.812;2023-04-01T04:58:31;2.85;;;1.00;;
72205;SDS011;60111;48.286;7.812;2023-04-01T05:01:11;5.00;;;1.37;;
72205;SDS011;60111;48.286;7.812;2023-04-01T05:04:05;5.72;;;1.37;;
72205;SDS011;60111;48.286;7.812;2023-04-01T05:06:37;2.60;;;1.02;;
72205;SDS011;60111;48.286;7.812;2023-04-01T05:09:10;7.87;;;1.30;;
72205;SDS011;60111;48.286;7.812;2023-04-01T05:11:42;7.37;;;1.50;;
72205;SDS011;60111;48.286;7.812;2023-04-01T05:14:15;7.70;;;1.60;;
72205;SDS011;60111;48.286;7.812;2023-04-01T05:16:48;3.72;;;1.20;;
72205;SDS011;60111;48.286;7.812;2023-04-01T05:19:21;5.05;;;1.57;;
72205;SDS011;60111;48.286;7.812;2023-04-01T05:21:53;9.50;;;1.70;;
72205;SDS011;60111;48.286;7.812;2023-04-01T05:24:26;11.37;;;1.63;;
72205;SDS011;60111;48.286;7.812;2023-04-01T05:26:59;8.68;;;2.10;;
72205;SDS011;60111;48.286;7.812;2023-04-01T05:29:31;6.75;;;1.72;;
72205;SDS011;60111;48.286;7.812;2023-04-01T05:32:05;8.85;;;1.65;;
72205;SDS011;60111;48.286;7.812;2023-04-01T05:34:38;9.20;;;1.90;;
72205;SDS011;60111;48.286;7.812;2023-04-01T05:37:11;8.50;;;1.65;;
72205;SDS011;60111;48.286;7.812;2023-04-01T05:39:43;9.27;;;2.27;;
72205;SDS011;60111;48.286;7.812;2023-04-01T05:42:16;5.97;;;1.42;;
72205;SDS011;60111;48.286;7.812;2023-04-01T05:44:48;6.47;;;1.72;;
72205;SDS011;60111;48.286;7.812;2023-04-01T05:47:21;5.35;;;1.77;;
72205;SDS011;60111;48.286;7.812;2023-04-01T05:49:54;10.23;;;1.72;;
72205;SDS011;60111;48.286;7.812;2023-04-01T05:52:26;7.35;;;1.62;;
72205;SDS011;60111;48.286;7.812;2023-04-01T05:54:59;11.18;;;2.17;;
72205;SDS011;60111;48.286;7.812;2023-04-01T05:57:31;10.60;;;1.72;;
72205;SDS011;60111;48.286;7.812;2023-04-01T06:00:04;9.65;;;2.30;;
72205;SDS011;60111;48.286;7.812;2023-04-01T06:02:38;9.50;;;1.83;;
72205;SDS011;60111;48.286;7.812;2023-04-01T06:05:21;11.30;;;1.87;;
72205;SDS011;60111;48.286;7.812;2023-04-01T06:07:52;5.70;;;2.02;;
72205;SDS011;60111;48.286;7.812;2023-04-01T06:10:45;6.17;;;1.47;;
72205;SDS011;60111;48.286;7.812;2023-04-01T06:19:05;8.65;;;1.55;;
72205;SDS011;60111;48.286;7.812;2023-04-01T06:24:44;8.13;;;1.75;;
72205;SDS011;60111;48.286;7.812;2023-04-01T06:36:24;5.72;;;1.50;;
72205;SDS011;60111;48.286;7.812;2023-04-01T06:39:07;7.50;;;1.52;;
72205;SDS011;60111;48.286;7.812;2023-04-01T06:44:42;10.18;;;1.70;;
72205;SDS011;60111;48.286;7.812;2023-04-01T06:50:15;7.40;;;1.60;;
72205;SDS011;60111;48.286;7.812;2023-04-01T06:55:32;9.55;;;1.60;;
72205;SDS011;60111;48.286;7.812;2023-04-01T06:58:10;8.25;;;1.52;;
72205;SDS011;60111;48.286;7.812;2023-04-01T07:00:49;9.03;;;1.70;;
72205;SDS011;60111;48.286;7.812;2023-04-01T07:03:32;11.67;;;2.47;;
72205;SDS011;60111;48.286;7.812;2023-04-01T07:06:13;8.50;;;1.50;;
72205;SDS011;60111;48.286;7.812;2023-04-01T07:08:46;7.67;;;1.47;;
72205;SDS011;60111;48.286;7.812;2023-04-01T07:11:28;4.87;;;1.20;;
72205;SDS011;60111;48.286;7.812;2023-04-01T07:14:10;7.47;;;1.50;;
72205;SDS011;60111;48.286;7.812;2023-04-01T07:16:39;5.05;;;1.50;;
72205;SDS011;60111;48.286;7.812;2023-04-01T07:19:24;4.80;;;1.37;;
72205;SDS011;60111;48.286;7.812;2023-04-01T07:22:02;4.45;;;1.37;;
72205;SDS011;60111;48.286;7.812;2023-04-01T07:24:42;4.60;;;1.57;;
72205;SDS011;60111;48.286;7.812;2023-04-01T07:27:17;4.37;;;1.47;;
72205;SDS011;60111;48.286;7.812;2023-04-01T07:29:50;1.90;;;0.90;;
72205;SDS011;60111;48.286;7.812;2023-04-01T07:32:29;9.00;;;1.50;;
72205;SDS011;60111;48.286;7.812;2023-04-01T07:38:04;3.75;;;1.50;;
72205;SDS011;60111;48.286;7.812;2023-04-01T07:41:00;4.40;;;1.42;;
72205;SDS011;60111;48.286;7.812;2023-04-01T07:49:13;3.47;;;1.40;;
72205;SDS011;60111;48.286;7.812;2023-04-01T07:51:55;3.42;;;1.35;;
72205;SDS011;60111;48.286;7.812;2023-04-01T07:57:20;6.12;;;1.57;;
72205;SDS011;60111;48.286;7.812;2023-04-01T08:00:06;6.63;;;1.40;;
72205;SDS011;60111;48.286;7.812;2023-04-01T08:05:19;5.08;;;1.75;;
72205;SDS011;60111;48.286;7.812;2023-04-01T08:10:40;1.90;;;1.05;;
72205;SDS011;60111;48.286;7.812;2023-04-01T08:13:16;3.83;;;1.30;;
72205;SDS011;60111;48.286;7.812;2023-04-01T08:21:23;4.40;;;1.80;;
72205;SDS011;60111;48.286;7.812;2023-04-01T08:23:57;4.33;;;1.30;;
72205;SDS011;60111;48.286;7.812;2023-04-01T08:26:34;5.35;;;1.50;;
72205;SDS011;60111;48.286;7.812;2023-04-01T08:29:12;5.05;;;1.40;;
72205;SDS011;60111;48.286;7.812;2023-04-01T08:31:56;2.90;;;1.02;;
72205;SDS011;60111;48.286;7.812;2023-04-01T08:34:32;2.67;;;0.80;;
72205;SDS011;60111;48.286;7.812;2023-04-01T08:39:49;5.45;;;1.55;;
72205;SDS011;60111;48.286;7.812;2023-04-01T08:45:15;4.33;;;1.17;;
72205;SDS011;60111;48.286;7.812;2023-04-01T08:47:54;4.47;;;1.20;;
72205;SDS011;60111;48.286;7.812;2023-04-01T08:50:50;5.05;;;1.10;;
72205;SDS011;60111;48.286;7.812;2023-04-01T08:56:15;4.85;;;1.20;;
72205;SDS011;60111;48.286;7.812;2023-04-01T09:04:59;4.37;;;1.10;;
72205;SDS011;60111;48.286;7.812;2023-04-01T09:10:46;3.25;;;1.15;;
72205;SDS011;60111;48.286;7.812;2023-04-01T09:19:20;2.95;;;1.00;;
72205;SDS011;60111;48.286;7.812;2023-04-01T09:25:21;7.12;;;1.40;;
72205;SDS011;60111;48.286;7.812;2023-04-01T09:28:18;2.70;;;0.90;;
72205;SDS011;60111;48.286;7.812;2023-04-01T09:39:38;3.92;;;1.27;;
72205;SDS011;60111;48.286;7.812;2023-04-01T09:42:24;2.00;;;1.10;;
72205;SDS011;60111;48.286;7.812;2023-04-01T09:47:55;3.52;;;0.98;;
72205;SDS011;60111;48.286;7.812;2023-04-01T09:53:16;2.95;;;1.02;;
72205;SDS011;60111;48.286;7.812;2023-04-01T09:59:00;3.58;;;1.20;;
72205;SDS011;60111;48.286;7.812;2023-04-01T10:01:45;2.65;;;1.10;;
72205;SDS011;60111;48.286;7.812;2023-04-01T10:07:24;3.87;;;1.47;;
72205;SDS011;60111;48.286;7.812;2023-04-01T10:19:18;5.78;;;1.30;;
72205;SDS011;60111;48.286;7.812;2023-04-01T10:22:01;4.20;;;1.07;;
72205;SDS011;60111;48.286;7.812;2023-04-01T10:24:45;2.22;;;1.10;;
72205;SDS011;60111;48.286;7.812;2023-04-01T10:38:45;3.47;;;1.60;;
72205;SDS011;60111;48.286;7.812;2023-04-01T10:41:50;3.72;;;1.70;;
72205;SDS011;60111;48.286;7.812;2023-04-01T10:44:22;4.55;;;2.30;;
72205;SDS011;60111;48.286;7.812;2023-04-01T10:47:12;3.42;;;1.20;;
72205;SDS011;60111;48.286;7.812;2023-04-01T10:55:43;5.72;;;1.20;;
72205;SDS011;60111;48.286;7.812;2023-04-01T11:12:57;3.50;;;1.20;;
72205;SDS011;60111;48.286;7.812;2023-04-01T11:21:55;2.12;;;1.40;;
72205;SDS011;60111;48.286;7.812;2023-04-01T11:36:25;3.95;;;1.15;;
72205;SDS011;60111;48.286;7.812;2023-04-01T11:41:57;3.80;;;2.22;;
72205;SDS011;60111;48.286;7.812;2023-04-01T11:44:30;2.08;;;0.90;;
72205;SDS011;60111;48.286;7.812;2023-04-01T11:55:24;2.50;;;1.40;;
72205;SDS011;60111;48.286;7.812;2023-04-01T12:00:48;2.75;;;0.70;;
72205;SDS011;60111;48.286;7.812;2023-04-01T12:04:00;1.10;;;0.82;;
72205;SDS011;60111;48.286;7.812;2023-04-01T12:15:00;1.45;;;0.68;;
72205;SDS011;60111;48.286;7.812;2023-04-01T12:17:51;1.15;;;0.70;;
72205;SDS011;60111;48.286;7.812;2023-04-01T12:20:34;1.50;;;0.60;;
72205;SDS011;60111;48.286;7.812;2023-04-01T12:32:41;2.47;;;0.60;;
72205;SDS011;60111;48.286;7.812;2023-04-01T12:35:44;3.67;;;1.27;;
72205;SDS011;60111;48.286;7.812;2023-04-01T12:37:58;1.95;;;0.78;;
72205;SDS011;60111;48.286;7.812;2023-04-01T12:40:46;3.90;;;1.07;;
72205;SDS011;60111;48.286;7.812;2023-04-01T12:43:31;1.30;;;0.90;;
72205;SDS011;60111;48.286;7.812;2023-04-01T12:46:24;3.62;;;1.42;;
72205;SDS011;60111;48.286;7.812;2023-04-01T12:49:12;3.62;;;1.27;;
72205;SDS011;60111;48.286;7.812;2023-04-01T12:51:57;1.60;;;1.12;;
72205;SDS011;60111;48.286;7.812;2023-04-01T12:54:44;1.90;;;1.00;;
72205;SDS011;60111;48.286;7.812;2023-04-01T13:06:03;2.33;;;1.47;;
72205;SDS011;60111;48.286;7.812;2023-04-01T13:12:18;1.60;;;1.10;;
72205;SDS011;60111;48.286;7.812;2023-04-01T13:14:24;2.83;;;1.50;;
72205;SDS011;60111;48.286;7.812;2023-04-01T13:23:01;3.83;;;1.72;;
72205;SDS011;60111;48.286;7.812;2023-04-01T13:28:42;0.90;;;0.80;;
72205;SDS011;60111;48.286;7.812;2023-04-01T13:34:08;2.55;;;1.15;;
72205;SDS011;60111;48.286;7.812;2023-04-01T13:36:46;2.03;;;1.00;;
72205;SDS011;60111;48.286;7.812;2023-04-01T13:39:34;1.98;;;1.00;;
72205;SDS011;60111;48.286;7.812;2023-04-01T13:42:16;1.47;;;0.93;;
72205;SDS011;60111;48.286;7.812;2023-04-01T13:45:24;1.22;;;0.85;;
72205;SDS011;60111;48.286;7.812;2023-04-01T13:47:41;3.10;;;0.90;;
72205;SDS011;60111;48.286;7.812;2023-04-01T13:53:04;3.83;;;2.85;;
72205;SDS011;60111;48.286;7.812;2023-04-01T13:55:54;1.82;;;1.70;;
72205;SDS011;60111;48.286;7.812;2023-04-01T13:58:58;2.27;;;1.32;;
72205;SDS011;60111;48.286;7.812;2023-04-01T14:01:55;5.83;;;4.28;;
72205;SDS011;60111;48.286;7.812;2023-04-01T14:05:07;1.77;;;1.52;;
72205;SDS011;60111;48.286;7.812;2023-04-01T14:10:36;3.00;;;2.13;;
72205;SDS011;60111;48.286;7.812;2023-04-01T14:16:20;3.92;;;1.60;;
72205;SDS011;60111;48.286;7.812;2023-04-01T14:19:11;3.30;;;1.75;;
72205;SDS011;60111;48.286;7.812;2023-04-01T14:36:38;4.90;;;1.50;;
72205;SDS011;60111;48.286;7.812;2023-04-01T14:42:23;2.72;;;1.37;;
72205;SDS011;60111;48.286;7.812;2023-04-01T14:47:58;2.50;;;1.17;;
72205;SDS011;60111;48.286;7.812;2023-04-01T14:50:48;2.75;;;1.10;;
72205;SDS011;60111;48.286;7.812;2023-04-01T14:55:58;3.25;;;1.50;;
72205;SDS011;60111;48.286;7.812;2023-04-01T14:58:46;2.90;;;1.47;;
72205;SDS011;60111;48.286;7.812;2023-04-01T15:01:37;1.60;;;1.50;;
72205;SDS011;60111;48.286;7.812;2023-04-01T15:04:21;2.17;;;1.80;;
72205;SDS011;60111;48.286;7.812;2023-04-01T15:13:10;1.82;;;1.27;;
72205;SDS011;60111;48.286;7.812;2023-04-01T15:21:16;3.98;;;1.50;;
72205;SDS011;60111;48.286;7.812;2023-04-01T15:24:07;1.30;;;0.90;;
72205;SDS011;60111;48.286;7.812;2023-04-01T15:35:45;3.03;;;2.47;;
72205;SDS011;60111;48.286;7.812;2023-04-01T15:47:10;2.52;;;1.70;;
72205;SDS011;60111;48.286;7.812;2023-04-01T15:49:47;4.35;;;3.30;;
72205;SDS011;60111;48.286;7.812;2023-04-01T15:55:15;2.08;;;1.20;;
72205;SDS011;60111;48.286;7.812;2023-04-01T15:58:16;5.10;;;1.35;;
72205;SDS011;60111;48.286;7.812;2023-04-01T16:00:47;1.30;;;1.20;;
72205;SDS011;60111;48.286;7.812;2023-04-01T16:09:30;1.52;;;1.20;;
72205;SDS011;60111;48.286;7.812;2023-04-01T16:12:04;2.80;;;1.20;;
72205;SDS011;60111;48.286;7.812;2023-04-01T16:14:58;1.15;;;0.90;;
72205;SDS011;60111;48.286;7.812;2023-04-01T16:17:42;1.43;;;0.73;;
72205;SDS011;60111;48.286;7.812;2023-04-01T16:22:59;1.35;;;0.90;;
72205;SDS011;60111;48.286;7.812;2023-04-01T16:25:33;1.37;;;0.80;;
72205;SDS011;60111;48.286;7.812;2023-04-01T16:31:09;2.42;;;1.00;;
72205;SDS011;60111;48.286;7.812;2023-04-01T16:33:56;2.15;;;1.20;;
72205;SDS011;60111;48.286;7.812;2023-04-01T16:36:50;1.47;;;0.80;;
72205;SDS011;60111;48.286;7.812;2023-04-01T16:39:32;0.70;;;0.70;;
72205;SDS011;60111;48.286;7.812;2023-04-01T16:47:40;1.83;;;1.00;;
72205;SDS011;60111;48.286;7.812;2023-04-01T16:50:17;2.45;;;1.65;;
72205;SDS011;60111;48.286;7.812;2023-04-01T16:58:42;2.55;;;1.30;;
72205;SDS011;60111;48.286;7.812;2023-04-01T17:01:21;3.07;;;1.50;;
72205;SDS011;60111;48.286;7.812;2023-04-01T17:04:00;2.55;;;1.50;;
72205;SDS011;60111;48.286;7.812;2023-04-01T17:06:40;1.10;;;1.00;;
72205;SDS011;60111;48.286;7.812;2023-04-01T17:09:21;1.72;;;1.00;;
72205;SDS011;60111;48.286;7.812;2023-04-01T17:20:14;1.45;;;1.10;;
72205;SDS011;60111;48.286;7.812;2023-04-01T17:23:13;4.28;;;2.55;;
72205;SDS011;60111;48.286;7.812;2023-04-01T17:29:01;5.53;;;1.87;;
72205;SDS011;60111;48.286;7.812;2023-04-01T17:31:40;4.90;;;2.30;;
72205;SDS011;60111;48.286;7.812;2023-04-01T17:34:24;3.72;;;2.92;;
72205;SDS011;60111;48.286;7.812;2023-04-01T17:46:02;11.93;;;7.20;;
72205;SDS011;60111;48.286;7.812;2023-04-01T17:49:00;9.20;;;5.23;;
72205;SDS011;60111;48.286;7.812;2023-04-01T17:51:37;7.17;;;3.12;;
72205;SDS011;60111;48.286;7.812;2023-04-01T17:54:24;3.50;;;2.30;;
72205;SDS011;60111;48.286;7.812;2023-04-01T18:00:06;4.25;;;1.80;;
72205;SDS011;60111;48.286;7.812;2023-04-01T18:03:11;3.58;;;2.15;;
72205;SDS011;60111;48.286;7.812;2023-04-01T18:05:51;7.10;;;2.12;;
72205;SDS011;60111;48.286;7.812;2023-04-01T18:08:43;5.77;;;4.50;;
72205;SDS011;60111;48.286;7.812;2023-04-01T18:19:38;4.40;;;2.60;;
72205;SDS011;60111;48.286;7.812;2023-04-01T18:22:25;4.60;;;3.00;;
72205;SDS011;60111;48.286;7.812;2023-04-01T18:25:06;7.70;;;3.17;;
72205;SDS011;60111;48.286;7.812;2023-04-01T18:27:42;4.62;;;3.55;;
72205;SDS011;60111;48.286;7.812;2023-04-01T18:30:26;7.40;;;3.17;;
72205;SDS011;60111;48.286;7.812;2023-04-01T18:36:45;8.53;;;3.55;;
72205;SDS011;60111;48.286;7.812;2023-04-01T18:38:40;7.62;;;6.20;;
72205;SDS011;60111;48.286;7.812;2023-04-01T18:44:03;3.52;;;2.27;;
72205;SDS011;60111;48.286;7.812;2023-04-01T18:47:05;2.33;;;1.67;;
72205;SDS011;60111;48.286;7.812;2023-04-01T18:52:37;3.00;;;2.03;;
72205;SDS011;60111;48.286;7.812;2023-04-01T18:55:28;3.95;;;2.08;;
72205;SDS011;60111;48.286;7.812;2023-04-01T19:01:04;5.00;;;2.42;;
72205;SDS011;60111;48.286;7.812;2023-04-01T19:07:01;5.60;;;3.10;;
72205;SDS011;60111;48.286;7.812;2023-04-01T19:09:48;6.95;;;3.05;;
72205;SDS011;60111;48.286;7.812;2023-04-01T19:18:26;4.67;;;2.40;;
72205;SDS011;60111;48.286;7.812;2023-04-01T19:26:29;1.87;;;1.50;;
72205;SDS011;60111;48.286;7.812;2023-04-01T19:37:47;2.55;;;1.60;;
72205;SDS011;60111;48.286;7.812;2023-04-01T19:43:18;3.30;;;1.20;;
72205;SDS011;60111;48.286;7.812;2023-04-01T19:46:06;1.95;;;1.40;;
72205;SDS011;60111;48.286;7.812;2023-04-01T19:51:47;2.85;;;1.70;;
72205;SDS011;60111;48.286;7.812;2023-04-01T19:57:46;4.25;;;1.60;;
72205;SDS011;60111;48.286;7.812;2023-04-01T20:00:31;2.20;;;1.30;;
72205;SDS011;60111;48.286;7.812;2023-04-01T20:19:33;2.80;;;1.60;;
72205;SDS011;60111;48.286;7.812;2023-04-01T20:22:02;3.00;;;1.40;;
72205;SDS011;60111;48.286;7.812;2023-04-01T20:24:43;1.93;;;1.30;;
72205;SDS011;60111;48.286;7.812;2023-04-01T20:27:18;2.55;;;1.37;;
72205;SDS011;60111;48.286;7.812;2023-04-01T20:35:43;2.10;;;1.37;;
72205;SDS011;60111;48.286;7.812;2023-04-01T20:41:34;2.22;;;1.30;;
72205;SDS011;60111;48.286;7.812;2023-04-01T20:44:18;3.67;;;2.05;;
72205;SDS011;60111;48.286;7.812;2023-04-01T20:47:10;2.45;;;1.40;;
72205;SDS011;60111;48.286;7.812;2023-04-01T20:52:32;1.70;;;1.50;;
72205;SDS011;60111;48.286;7.812;2023-04-01T20:58:15;2.35;;;1.60;;
72205;SDS011;60111;48.286;7.812;2023-04-01T21:09:44;2.90;;;1.15;;
72205;SDS011;60111;48.286;7.812;2023-04-01T21:18:30;2.90;;;0.80;;
72205;SDS011;60111;48.286;7.812;2023-04-01T21:21:11;1.98;;;0.80;;
72205;SDS011;60111;48.286;7.812;2023-04-01T21:27:04;2.55;;;1.95;;
72205;SDS011;60111;48.286;7.812;2023-04-01T21:29:42;0.88;;;0.80;;
72205;SDS011;60111;48.286;7.812;2023-04-01T21:32:38;1.27;;;0.90;;
72205;SDS011;60111;48.286;7.812;2023-04-01T21:35:30;2.23;;;0.87;;
72205;SDS011;60111;48.286;7.812;2023-04-01T21:38:23;2.00;;;0.72;;
72205;SDS011;60111;48.286;7.812;2023-04-01T22:08:02;1.20;;;0.70;;
72205;SDS011;60111;48.286;7.812;2023-04-01T22:11:06;3.17;;;1.37;;
72205;SDS011;60111;48.286;7.812;2023-04-01T22:13:48;5.17;;;1.62;;
72205;SDS011;60111;48.286;7.812;2023-04-01T22:24:41;6.62;;;2.47;;
72205;SDS011;60111;48.286;7.812;2023-04-01T22:27:24;6.40;;;2.20;;
72205;SDS011;60111;48.286;7.812;2023-04-01T22:30:19;2.62;;;1.50;;
72205;SDS011;60111;48.286;7.812;2023-04-01T22:32:59;4.00;;;0.80;;
72205;SDS011;60111;48.286;7.812;2023-04-01T22:35:53;0.90;;;0.90;;
72205;SDS011;60111;48.286;7.812;2023-04-01T22:38:48;1.37;;;0.88;;
72205;SDS011;60111;48.286;7.812;2023-04-01T22:41:27;3.45;;;1.95;;
72205;SDS011;60111;48.286;7.812;2023-04-01T22:43:59;3.27;;;1.60;;
72205;SDS011;60111;48.286;7.812;2023-04-01T22:46:36;4.10;;;1.70;;
72205;SDS011;60111;48.286;7.812;2023-04-01T22:49:38;10.60;;;3.95;;
72205;SDS011;60111;48.286;7.812;2023-04-01T22:52:02;3.90;;;2.10;;
72205;SDS011;60111;48.286;7.812;2023-04-01T22:54:35;3.85;;;1.50;;
72205;SDS011;60111;48.286;7.812;2023-04-01T22:57:14;1.90;;;1.10;;
72205;SDS011;60111;48.286;7.812;2023-04-01T22:59:52;2.25;;;1.10;;
72205;SDS011;60111;48.286;7.812;2023-04-01T23:02:31;5.03;;;1.82;;
72205;SDS011;60111;48.286;7.812;2023-04-01T23:05:05;2.98;;;1.87;;
72205;SDS011;60111;48.286;7.812;2023-04-01T23:10:41;10.60;;;4.17;;
72205;SDS011;60111;48.286;7.812;2023-04-01T23:13:30;8.48;;;2.83;;
72205;SDS011;60111;48.286;7.812;2023-04-01T23:16:04;7.72;;;3.62;;
72205;SDS011;60111;48.286;7.812;2023-04-01T23:21:34;4.00;;;2.20;;
72205;SDS011;60111;48.286;7.812;2023-04-01T23:27:03;5.23;;;2.20;;
72205;SDS011;60111;48.286;7.812;2023-04-01T23:29:36;3.50;;;1.85;;
72205;SDS011;60111;48.286;7.812;2023-04-01T23:32:14;3.10;;;1.97;;
72205;SDS011;60111;48.286;7.812;2023-04-01T23:34:58;3.45;;;1.98;;
72205;SDS011;60111;48.286;7.812;2023-04-01T23:37:31;4.75;;;2.10;;
72205;SDS011;60111;48.286;7.812;2023-04-01T23:40:04;4.40;;;2.00;;
72205;SDS011;60111;48.286;7.812;2023-04-01T23:42:40;5.12;;;1.70;;
72205;SDS011;60111;48.286;7.812;2023-04-01T23:45:14;3.65;;;1.72;;
72205;SDS011;60111;48.286;7.812;2023-04-01T23:47:51;4.58;;;1.92;;
72205;SDS011;60111;48.286;7.812;2023-04-01T23:50:24;2.85;;;1.67;;
72205;SDS011;60111;48.286;7.812;2023-04-01T23:55:32;3.27;;;1.95;;
